Topaz Lodge, Nevada
Current Conditions -  °F | °C
As of 3:35 PM on Saturday 20 Dec 2014 (Local Time) from KMEV Reporting Station
Scattered Clouds Scattered Clouds  
Wind Chill: 52°   Ceiling: Unl
Heat Index: 52°   Visibility: 10mi
Dew Point: 34°   Wind: 7mph
Humidity: 50%   Direction: 230°SW
Pressure: 30.11"   Gusts: NA
Location:  38.9417°N, 119.681°W
Report Text: KMEV 202335Z AUTO 23006KT 10SM SCT050 SCT110 11/01 A3011 RMK AO2
Loading
Personal Weather Stations






























Interactive Weather Map New forecast layout! Learn more

10-Day Weather Forecast

Advertisements
Track Severe Weather on mobile